Bellevue, Canada
Current Conditions -  °F | °C
As of 4:00 PM on Friday 21 Nov 2014 (Local Time) from CYYT Reporting Station
Scattered Clouds Scattered Clouds  
Wind Chill: 32°   Ceiling: Unl
Heat Index: 41°   Visibility: 15mi
Dew Point: 37°   Wind: 18mph
Humidity: 87%   Direction: 250°WSW
Pressure: 29.45"   Gusts: 26mph
Location:  47.63°N, 53.75°W
Report Text: CYYT 211900Z 25016G23KT 15SM SCT025 05/03 A2945 RMK SC4 SLP976
Loading
Personal Weather Stations






























Interactive Weather Map New forecast layout! Learn more

10-Day Weather Forecast

Advertisements
Track Severe Weather on mobile